Time;durP1;ratioP1;P1;durP2;ratioP2;P2;SDS_P1;SDS_P2;PMS_P1;PMS_P2;Temp;Humidity;BMP_temperature;BMP_pressure;BME280_temperature;BME280_humidity;BME280_pressure;Samples;Min_cycle;Max_cycle;Signal;HPM_P1;HPM_P2
2022/06/15 00:00:00;;;;;;;;;;;;;;;27.73;46.06;98862.88;2045170;28;19937;-66
2022/06/15 00:01:03;;;;;;;;;;;;;;;27.74;45.88;98859.06;2046302;28;20024;-67
2022/06/15 00:02:04;;;;;;;;;;;;;;;27.73;46.09;98862.88;2044783;28;20070;-67
2022/06/15 00:03:05;;;;;;;;;;;;;;;27.72;46.24;98862.06;2048120;28;19933;-65
2022/06/15 00:04:06;;;;;;;;;;;;;;;27.71;46.25;98860.38;2046995;28;19938;-67
2022/06/15 00:05:08;;;;;;;;;;;;;;;27.67;46.56;98867.44;2049220;28;19965;-67
2022/06/15 00:06:10;;;;;;;;;;;;;;;27.70;46.55;98857.94;2046471;28;19948;-67
2022/06/15 00:07:12;;;;;;;;;;;;;;;27.71;46.28;98856.84;2046470;28;19926;-67
2022/06/15 00:08:13;;;;;;;;;;;;;;;27.71;46.78;98854.94;2043858;28;21254;-67
2022/06/15 00:09:14;;;;;;;;;;;;;;;27.69;46.63;98853.56;2047485;28;19940;-66
2022/06/15 00:10:16;;;;;;;;;;;;;;;27.69;46.41;98859.81;2046557;28;20563;-67
2022/06/15 00:11:19;;;;;;;;;;;;;;;27.69;46.80;98859.00;2044576;28;20291;-66
2022/06/15 00:12:20;;;;;;;;;;;;;;;27.71;46.58;98863.13;2041399;28;19944;-68
2022/06/15 00:13:22;;;;;;;;;;;;;;;27.71;46.63;98856.84;2047549;28;20455;-67
2022/06/15 00:14:25;;;;;;;;;;;;;;;27.68;46.64;98866.34;2040279;28;19934;-68
2022/06/15 00:15:26;;;;;;;;;;;;;;;27.68;46.38;98860.09;2046284;28;19934;-68
2022/06/15 00:16:27;;;;;;;;;;;;;;;27.69;46.86;98865.25;2046491;28;20778;-68
2022/06/15 00:17:29;;;;;;;;;;;;;;;27.71;46.70;98860.38;2048795;28;19936;-68
2022/06/15 00:18:30;;;;;;;;;;;;;;;27.70;46.63;98860.66;2048236;28;20309;-67
2022/06/15 00:19:31;;;;;;;;;;;;;;;27.71;46.06;98859.56;2042709;28;20382;-67
2022/06/15 00:20:32;;;;;;;;;;;;;;;27.71;46.13;98857.66;2050409;28;19930;-67
2022/06/15 00:21:34;;;;;;;;;;;;;;;27.73;46.46;98860.97;2043194;28;19926;-67
2022/06/15 00:22:34;;;;;;;;;;;;;;;27.71;46.07;98854.94;2045461;28;19937;-67
2022/06/15 00:23:36;;;;;;;;;;;;;;;27.71;46.20;98854.13;2044796;28;21209;-67
2022/06/15 00:24:37;;;;;;;;;;;;;;;27.70;46.54;98847.84;2047518;28;20706;-68
2022/06/15 00:25:40;;;;;;;;;;;;;;;27.71;46.11;98857.66;2047693;28;19969;-67
2022/06/15 00:26:41;;;;;;;;;;;;;;;27.70;45.81;98853.31;2048162;28;20021;-68
2022/06/15 00:27:43;;;;;;;;;;;;;;;27.70;46.06;98847.84;2046742;28;19929;-67
2022/06/15 00:28:43;;;;;;;;;;;;;;;27.70;46.26;98847.84;2048091;28;20272;-68
2022/06/15 00:29:45;;;;;;;;;;;;;;;27.70;46.22;98847.03;2043799;28;19940;-67
2022/06/15 00:30:46;;;;;;;;;;;;;;;27.72;45.98;98850.31;2041111;28;20303;-69
2022/06/15 00:31:48;;;;;;;;;;;;;;;27.72;46.48;98848.44;2046032;28;20277;-67
2022/06/15 00:32:48;;;;;;;;;;;;;;;27.71;46.40;98846.75;2049638;28;19934;-68
2022/06/15 00:33:50;;;;;;;;;;;;;;;27.70;46.20;98853.31;2047867;28;19974;-68
2022/06/15 00:34:51;;;;;;;;;;;;;;;27.70;46.33;98845.13;2048950;28;19941;-68
2022/06/15 00:35:57;;;;;;;;;;;;;;;27.72;46.01;98858.47;2046526;28;19936;-68
2022/06/15 00:36:58;;;;;;;;;;;;;;;27.71;46.47;98854.94;2047096;28;19926;-68
2022/06/15 00:37:59;;;;;;;;;;;;;;;27.72;46.29;98851.16;2048518;28;20374;-68
2022/06/15 00:39:00;;;;;;;;;;;;;;;27.72;45.81;98850.31;2048369;28;19930;-68
2022/06/15 00:40:02;;;;;;;;;;;;;;;27.72;45.86;98858.47;2052274;28;19926;-68
2022/06/15 00:41:05;;;;;;;;;;;;;;;27.70;46.17;98847.84;2046930;28;19937;-68
2022/06/15 00:42:06;;;;;;;;;;;;;;;27.69;46.68;98846.19;2048510;28;20448;-68
2022/06/15 00:43:08;;;;;;;;;;;;;;;27.71;46.51;98848.66;2049610;28;20129;-67
2022/06/15 00:44:31;;;;;;;;;;;;;;;27.70;46.97;98842.41;2052343;28;20025;-67
2022/06/15 00:45:32;;;;;;;;;;;;;;;27.68;46.79;98855.47;2046085;28;19929;-68
2022/06/15 00:46:36;;;;;;;;;;;;;;;27.71;46.71;98859.56;2046628;28;19930;-68
2022/06/15 00:47:39;;;;;;;;;;;;;;;27.70;46.93;98858.75;2050165;28;20176;-67
2022/06/15 00:48:42;;;;;;;;;;;;;;;27.68;46.92;98855.47;2049899;28;21537;-68
2022/06/15 00:49:47;;;;;;;;;;;;;;;27.67;47.38;98850.28;2049943;28;20420;-67
2022/06/15 00:50:50;;;;;;;;;;;;;;;27.68;47.03;98851.91;2047016;28;19937;-68
2022/06/15 00:51:53;;;;;;;;;;;;;;;27.69;47.25;98862.53;2048278;28;20025;-65
2022/06/15 00:52:57;;;;;;;;;;;;;;;27.68;47.30;98855.47;2048473;28;20015;-68
2022/06/15 00:53:59;;;;;;;;;;;;;;;27.68;47.25;98855.47;2042911;28;19934;-67
2022/06/15 00:55:01;;;;;;;;;;;;;;;27.66;47.24;98851.34;2050686;28;19926;-67
2022/06/15 00:56:04;;;;;;;;;;;;;;;27.67;47.24;98853.81;2049586;28;19961;-68
2022/06/15 00:57:06;;;;;;;;;;;;;;;27.68;47.23;98865.53;2049174;28;20021;-68
2022/06/15 00:58:09;;;;;;;;;;;;;;;27.67;47.26;98862.00;2049575;28;20411;-67
2022/06/15 00:59:13;;;;;;;;;;;;;;;27.66;47.41;98857.59;2046592;28;20318;-68
2022/06/15 01:00:16;;;;;;;;;;;;;;;27.66;47.19;98857.59;2049447;28;19930;-68
2022/06/15 01:01:17;;;;;;;;;;;;;;;27.66;47.33;98865.78;2050542;28;19930;-68
2022/06/15 01:02:18;;;;;;;;;;;;;;;27.67;47.26;98859.28;2046666;28;20455;-67
2022/06/15 01:03:19;;;;;;;;;;;;;;;27.66;47.60;98852.16;2050308;28;19937;-67
2022/06/15 01:04:21;;;;;;;;;;;;;;;27.68;47.58;98854.63;2044502;28;19927;-67
2022/06/15 01:05:26;;;;;;;;;;;;;;;27.66;47.43;98854.88;2049012;28;19957;-68
2022/06/15 01:06:31;;;;;;;;;;;;;;;27.67;47.56;98847.56;2046591;28;23217;-67
2022/06/15 01:07:42;;;;;;;;;;;;;;;27.67;47.50;98853.81;2045665;28;19956;-66
2022/06/15 01:08:51;;;;;;;;;;;;;;;27.65;47.68;98850.53;2045040;28;19932;-67
2022/06/15 01:09:56;;;;;;;;;;;;;;;27.67;47.46;98851.09;2050661;28;19926;-66
2022/06/15 01:11:14;;;;;;;;;;;;;;;27.69;47.51;98850.81;2046875;28;20707;-67
2022/06/15 01:12:25;;;;;;;;;;;;;;;27.67;47.53;98850.28;2047548;28;19929;-67
2022/06/15 01:13:34;;;;;;;;;;;;;;;27.69;47.50;98846.19;2049728;28;19930;-67
2022/06/15 01:14:59;;;;;;;;;;;;;;;27.69;47.30;98851.66;2046931;28;20319;-67
2022/06/15 01:16:01;;;;;;;;;;;;;;;27.70;47.50;98845.13;2029949;28;19930;-67
2022/06/15 01:17:09;;;;;;;;;;;;;;;27.68;47.52;98844.56;2047854;28;19934;-67
2022/06/15 01:18:27;;;;;;;;;;;;;;;27.71;47.30;98845.94;2045248;28;19934;-66
2022/06/15 01:19:42;;;;;;;;;;;;;;;27.68;47.49;98841.84;2046454;28;19941;-66
2022/06/15 01:20:57;;;;;;;;;;;;;;;27.68;47.31;98841.03;2046051;28;19926;-66
2022/06/15 01:22:05;;;;;;;;;;;;;;;27.70;47.43;98842.41;2043921;28;20410;-66
2022/06/15 01:23:26;;;;;;;;;;;;;;;27.68;47.20;98854.63;2049664;28;20011;-66
2022/06/15 01:24:40;;;;;;;;;;;;;;;27.66;47.25;98841.25;2053674;28;19929;-66
2022/06/15 01:25:42;;;;;;;;;;;;;;;27.67;47.65;98848.38;2045209;28;19941;-67
2022/06/15 01:27:00;;;;;;;;;;;;;;;27.66;47.52;98846.72;2046387;28;19930;-67
2022/06/15 01:28:34;;;;;;;;;;;;;;;27.65;47.45;98847.81;2044038;28;19926;-66
2022/06/15 01:29:47;;;;;;;;;;;;;;;27.66;47.69;98849.44;2022015;28;20404;-66
2022/06/15 01:30:54;;;;;;;;;;;;;;;27.69;47.28;98845.38;2025145;28;20331;-66
2022/06/15 01:31:57;;;;;;;;;;;;;;;27.68;47.10;98850.00;2020818;28;19937;-66
2022/06/15 01:33:12;;;;;;;;;;;;;;;27.66;46.97;98838.53;2022625;28;19946;-67
2022/06/15 01:34:17;;;;;;;;;;;;;;;27.65;47.13;98853.25;2021357;28;19934;-67
2022/06/15 01:35:23;;;;;;;;;;;;;;;27.67;47.45;98850.28;2023449;28;19934;-66
2022/06/15 01:36:27;;;;;;;;;;;;;;;27.66;47.14;98846.72;2051036;28;19930;-67
2022/06/15 01:37:33;;;;;;;;;;;;;;;27.66;47.56;98845.91;2047182;28;19934;-66
2022/06/15 01:38:38;;;;;;;;;;;;;;;27.66;47.34;98846.72;2044197;28;22668;-67
2022/06/15 01:39:44;;;;;;;;;;;;;;;27.64;47.05;98846.16;2047795;28;19935;-67
2022/06/15 01:40:46;;;;;;;;;;;;;;;27.65;47.15;98844.25;2046421;28;20853;-67
2022/06/15 01:41:51;;;;;;;;;;;;;;;27.67;46.94;98842.94;2052028;28;20877;-68
2022/06/15 01:42:54;;;;;;;;;;;;;;;27.67;46.78;98842.94;2045696;28;19934;-67
2022/06/15 01:43:58;;;;;;;;;;;;;;;27.67;46.82;98842.09;2045331;28;20513;-66
2022/06/15 01:45:02;;;;;;;;;;;;;;;27.67;46.84;98848.38;2046523;28;19933;-66
2022/06/15 01:46:05;;;;;;;;;;;;;;;27.67;46.60;98848.38;2047474;28;20014;-67
2022/06/15 01:47:09;;;;;;;;;;;;;;;27.68;46.23;98844.56;2049500;28;20121;-68
2022/06/15 01:48:11;;;;;;;;;;;;;;;27.67;46.24;98853.00;2041827;28;21786;-67
2022/06/15 01:49:16;;;;;;;;;;;;;;;27.65;46.95;98852.44;2048507;28;20033;-68
2022/06/15 01:50:18;;;;;;;;;;;;;;;27.63;46.92;98849.97;2047615;28;19926;-66
2022/06/15 01:51:22;;;;;;;;;;;;;;;27.66;46.99;98854.88;2047408;28;19933;-67
2022/06/15 01:52:25;;;;;;;;;;;;;;;27.66;47.08;98852.16;2035972;28;20327;-66
2022/06/15 01:53:30;;;;;;;;;;;;;;;27.60;47.44;98851.28;2037782;28;20030;-67
2022/06/15 01:54:33;;;;;;;;;;;;;;;27.58;47.72;98858.91;2048932;28;20331;-67
2022/06/15 01:55:36;;;;;;;;;;;;;;;27.59;47.41;98862.47;2044203;28;20020;-67
2022/06/15 01:56:38;;;;;;;;;;;;;;;27.60;47.57;98864.09;2047365;28;19956;-67
2022/06/15 01:57:40;;;;;;;;;;;;;;;27.62;47.43;98870.13;2042256;28;20406;-66
2022/06/15 01:58:42;;;;;;;;;;;;;;;27.61;47.66;98863.84;2040355;28;19969;-66
2022/06/15 01:59:45;;;;;;;;;;;;;;;27.62;47.73;98867.41;2046445;28;19930;-66
2022/06/15 02:00:56;;;;;;;;;;;;;;;27.62;47.62;98870.94;2045492;28;19930;-66
2022/06/15 02:02:02;;;;;;;;;;;;;;;27.61;47.84;98863.84;2041808;28;20016;-66
2022/06/15 02:03:07;;;;;;;;;;;;;;;27.60;47.55;98872.28;2048354;28;19941;-67
2022/06/15 02:04:12;;;;;;;;;;;;;;;27.61;47.47;98865.75;2049693;28;19926;-66
2022/06/15 02:05:16;;;;;;;;;;;;;;;27.61;47.40;98872.03;2046830;28;19926;-67
2022/06/15 02:06:23;;;;;;;;;;;;;;;27.62;47.56;98875.56;2043965;28;19934;-67
2022/06/15 02:07:30;;;;;;;;;;;;;;;27.59;47.51;98871.44;2049755;28;19967;-67
2022/06/15 02:08:36;;;;;;;;;;;;;;;27.61;47.64;98876.66;2048016;28;19927;-65
2022/06/15 02:09:40;;;;;;;;;;;;;;;27.61;47.62;98879.38;2048303;28;20410;-67
2022/06/15 02:10:48;;;;;;;;;;;;;;;27.59;47.73;98884.25;2044382;28;19930;-68
2022/06/15 02:11:50;;;;;;;;;;;;;;;27.60;47.50;98880.44;2047322;28;19977;-68
2022/06/15 02:12:52;;;;;;;;;;;;;;;27.59;47.81;98887.00;2050163;28;19937;-68
2022/06/15 02:13:59;;;;;;;;;;;;;;;27.60;47.44;98884.00;2042934;28;20391;-67
2022/06/15 02:15:01;;;;;;;;;;;;;;;27.61;47.45;98884.84;2046926;28;19930;-67
2022/06/15 02:16:04;;;;;;;;;;;;;;;27.61;47.51;98888.38;2046035;28;19934;-68
2022/06/15 02:17:08;;;;;;;;;;;;;;;27.61;47.45;98882.09;2046739;28;19989;-69
2022/06/15 02:18:11;;;;;;;;;;;;;;;27.58;47.67;98888.03;2043461;28;19939;-68
2022/06/15 02:19:15;;;;;;;;;;;;;;;27.58;47.74;98882.59;2049490;28;19926;-68
2022/06/15 02:20:19;;;;;;;;;;;;;;;27.61;47.48;98887.56;2040204;28;20237;-67
2022/06/15 02:21:20;;;;;;;;;;;;;;;27.60;47.37;98884.00;2046061;28;19927;-67
2022/06/15 02:22:24;;;;;;;;;;;;;;;27.59;47.43;98884.25;2045296;28;20141;-68
2022/06/15 02:23:26;;;;;;;;;;;;;;;27.60;47.70;98880.44;2040514;28;19926;-68
2022/06/15 02:24:29;;;;;;;;;;;;;;;27.61;47.30;98887.56;2048395;28;19930;-68
2022/06/15 02:25:31;;;;;;;;;;;;;;;27.60;47.26;98877.72;2050777;28;20418;-67
2022/06/15 02:26:34;;;;;;;;;;;;;;;27.59;47.64;98884.25;2047821;28;19926;-66
2022/06/15 02:27:37;;;;;;;;;;;;;;;27.59;47.28;98878.81;2048410;28;19925;-66
2022/06/15 02:28:42;;;;;;;;;;;;;;;27.59;47.38;98873.38;2045430;28;19983;-67
2022/06/15 02:29:45;;;;;;;;;;;;;;;27.58;47.35;98883.44;2046620;28;19953;-66
2022/06/15 02:30:46;;;;;;;;;;;;;;;27.58;47.43;98879.88;2048184;28;19970;-66
2022/06/15 02:31:47;;;;;;;;;;;;;;;27.58;47.83;98868.97;2047246;28;20377;-67
2022/06/15 02:32:51;;;;;;;;;;;;;;;27.58;47.71;98874.41;2046136;28;20358;-67
2022/06/15 02:33:54;;;;;;;;;;;;;;;27.58;47.42;98871.69;2047143;28;20144;-66
2022/06/15 02:34:56;;;;;;;;;;;;;;;27.60;47.46;98875.00;2046843;28;19929;-67
2022/06/15 02:35:57;;;;;;;;;;;;;;;27.59;47.68;98867.91;2048604;28;20407;-66
2022/06/15 02:36:59;;;;;;;;;;;;;;;27.60;47.75;98869.53;2045745;28;20283;-67
2022/06/15 02:38:00;;;;;;;;;;;;;;;27.61;47.86;98873.94;2045562;28;20458;-67
2022/06/15 02:39:03;;;;;;;;;;;;;;;27.59;47.80;98874.19;2045489;28;19936;-67
2022/06/15 02:40:04;;;;;;;;;;;;;;;27.62;47.54;98878.28;2045407;28;20364;-66
2022/06/15 02:41:06;;;;;;;;;;;;;;;27.59;47.46;98870.63;2048479;28;19933;-66
2022/06/15 02:42:24;;;;;;;;;;;;;;;27.59;47.46;98870.63;2048860;28;19940;-67
2022/06/15 02:43:28;;;;;;;;;;;;;;;27.58;47.92;98868.97;2050182;28;20080;-67
2022/06/15 02:44:30;;;;;;;;;;;;;;;27.59;47.83;98873.38;2049385;28;20188;-68
2022/06/15 02:45:35;;;;;;;;;;;;;;;27.59;47.86;98870.63;2043917;28;20310;-67
2022/06/15 02:46:37;;;;;;;;;;;;;;;27.60;47.88;98867.63;2047893;28;20358;-67
2022/06/15 02:47:41;;;;;;;;;;;;;;;27.60;47.84;98875.00;2050271;28;19934;-68
2022/06/15 02:48:44;;;;;;;;;;;;;;;27.60;47.63;98877.72;2046044;28;19930;-66
2022/06/15 02:49:48;;;;;;;;;;;;;;;27.58;47.67;98877.16;2052325;28;19933;-68
2022/06/15 02:50:51;;;;;;;;;;;;;;;27.57;47.75;98868.16;2052038;28;19936;-67
2022/06/15 02:51:55;;;;;;;;;;;;;;;27.58;47.92;98880.72;2046040;28;19936;-68
2022/06/15 02:53:00;;;;;;;;;;;;;;;27.58;47.94;98878.00;2051098;28;19930;-67
2022/06/15 02:54:07;;;;;;;;;;;;;;;27.59;47.77;98878.81;2054284;28;21522;-66
2022/06/15 02:55:09;;;;;;;;;;;;;;;27.58;47.82;98882.59;2048116;28;19991;-67
2022/06/15 02:56:13;;;;;;;;;;;;;;;27.58;47.68;98888.03;2051179;28;19934;-68
2022/06/15 02:57:14;;;;;;;;;;;;;;;27.57;47.64;98891.88;2046007;28;19937;-68
2022/06/15 02:58:22;;;;;;;;;;;;;;;27.58;48.04;98890.78;2046696;28;20096;-68
2022/06/15 02:59:22;;;;;;;;;;;;;;;27.58;47.78;98888.91;2047611;28;19937;-68
2022/06/15 03:00:24;;;;;;;;;;;;;;;27.58;47.79;98893.50;2049132;28;20689;-68
2022/06/15 03:01:25;;;;;;;;;;;;;;;27.58;47.54;98893.50;2049862;28;20570;-68
2022/06/15 03:02:27;;;;;;;;;;;;;;;27.56;47.62;98893.78;2041482;28;19930;-66
2022/06/15 03:03:28;;;;;;;;;;;;;;;27.56;47.95;98892.94;2043888;28;19930;-69
2022/06/15 03:04:31;;;;;;;;;;;;;;;27.56;47.54;98890.22;2045315;28;20055;-69
2022/06/15 03:05:32;;;;;;;;;;;;;;;27.57;47.93;98895.41;2048535;28;20390;-67
2022/06/15 03:06:34;;;;;;;;;;;;;;;27.56;47.87;98888.31;2044779;28;19957;-67
2022/06/15 03:07:34;;;;;;;;;;;;;;;27.56;47.58;98888.31;2048410;28;19954;-67
2022/06/15 03:08:36;;;;;;;;;;;;;;;27.54;47.53;98887.75;2042952;28;19945;-68
2022/06/15 03:09:37;;;;;;;;;;;;;;;27.56;47.89;98887.50;2043974;28;19926;-67
2022/06/15 03:10:38;;;;;;;;;;;;;;;27.56;47.61;98884.78;2045676;28;19933;-67
2022/06/15 03:11:40;;;;;;;;;;;;;;;27.55;47.77;98889.41;2041712;28;19937;-67
2022/06/15 03:12:41;;;;;;;;;;;;;;;27.56;47.65;98890.22;2045876;28;19926;-68
2022/06/15 03:13:42;;;;;;;;;;;;;;;27.55;47.89;98888.56;2051404;28;19930;-69
2022/06/15 03:14:43;;;;;;;;;;;;;;;27.58;48.01;98890.78;2049191;28;20033;-67
2022/06/15 03:15:44;;;;;;;;;;;;;;;27.57;47.73;98889.94;2044047;28;20216;-69
2022/06/15 03:16:48;;;;;;;;;;;;;;;27.58;47.59;98888.03;2047113;28;20409;-68
2022/06/15 03:17:50;;;;;;;;;;;;;;;27.56;48.17;98890.22;2043428;28;19930;-69
2022/06/15 03:18:52;;;;;;;;;;;;;;;27.54;48.12;98893.19;2044182;28;19930;-67
2022/06/15 03:19:54;;;;;;;;;;;;;;;27.55;48.04;98894.00;2045687;28;19926;-67
2022/06/15 03:20:56;;;;;;;;;;;;;;;27.55;47.76;98888.56;2046382;28;20084;-68
2022/06/15 03:21:57;;;;;;;;;;;;;;;27.54;47.86;98886.94;2047088;28;19957;-68
2022/06/15 03:22:59;;;;;;;;;;;;;;;27.54;47.69;98890.47;2045501;28;19934;-67
2022/06/15 03:24:00;;;;;;;;;;;;;;;27.53;48.04;98890.75;2047651;28;19941;-68
2022/06/15 03:25:01;;;;;;;;;;;;;;;27.55;47.98;98891.28;2047825;28;19926;-68
2022/06/15 03:26:03;;;;;;;;;;;;;;;27.53;48.15;98896.19;2045937;28;19973;-68
2022/06/15 03:27:04;;;;;;;;;;;;;;;27.53;47.90;98886.09;2043642;28;19933;-67
2022/06/15 03:28:06;;;;;;;;;;;;;;;27.54;47.69;98898.66;2042068;28;20374;-68
2022/06/15 03:29:07;;;;;;;;;;;;;;;27.53;47.77;98901.63;2047528;28;19936;-68
2022/06/15 03:30:09;;;;;;;;;;;;;;;27.52;48.14;98892.63;2045994;28;19958;-67
2022/06/15 03:31:09;;;;;;;;;;;;;;;27.54;48.00;98890.47;2049692;28;20476;-67
2022/06/15 03:32:12;;;;;;;;;;;;;;;27.52;47.68;98897.25;2046473;28;19940;-68
2022/06/15 03:33:12;;;;;;;;;;;;;;;27.54;47.86;98897.81;2046965;28;20113;-67
2022/06/15 03:34:14;;;;;;;;;;;;;;;27.54;47.95;98895.91;2048639;28;19942;-69
2022/06/15 03:35:16;;;;;;;;;;;;;;;27.54;47.71;98892.38;2044451;28;19933;-68
2022/06/15 03:36:17;;;;;;;;;;;;;;;27.56;47.85;98901.13;2040898;28;19930;-67
2022/06/15 03:37:19;;;;;;;;;;;;;;;27.55;47.66;98891.28;2044551;28;19935;-68
2022/06/15 03:38:20;;;;;;;;;;;;;;;27.55;47.61;98894.00;2040625;28;20064;-67
2022/06/15 03:39:21;;;;;;;;;;;;;;;27.55;47.94;98892.13;2045080;28;20545;-68
2022/06/15 03:40:22;;;;;;;;;;;;;;;27.57;47.78;98891.88;2049290;28;20220;-67
2022/06/15 03:41:24;;;;;;;;;;;;;;;27.55;47.79;98889.41;2046435;28;20025;-68
2022/06/15 03:42:26;;;;;;;;;;;;;;;27.56;47.67;98884.78;2043492;28;19929;-68
2022/06/15 03:43:27;;;;;;;;;;;;;;;27.55;47.73;98894.00;2046613;28;20157;-67
2022/06/15 03:44:28;;;;;;;;;;;;;;;27.55;47.84;98888.56;2040093;28;19934;-66
2022/06/15 03:45:30;;;;;;;;;;;;;;;27.55;47.88;98888.56;2049557;28;19934;-66
2022/06/15 03:46:30;;;;;;;;;;;;;;;27.54;47.68;98887.75;2045740;28;20326;-67
2022/06/15 03:47:32;;;;;;;;;;;;;;;27.56;47.77;98890.22;2041842;28;19965;-67
2022/06/15 03:48:33;;;;;;;;;;;;;;;27.56;47.82;98892.94;2047731;28;19937;-66
2022/06/15 03:49:34;;;;;;;;;;;;;;;27.53;48.05;98891.56;2052377;28;20236;-66
2022/06/15 03:50:37;;;;;;;;;;;;;;;27.54;47.79;98889.66;2046753;28;19930;-66
2022/06/15 03:51:38;;;;;;;;;;;;;;;27.53;48.35;98897.00;2049069;28;19943;-66
2022/06/15 03:52:39;;;;;;;;;;;;;;;27.54;47.99;98901.38;2045603;28;19940;-66
2022/06/15 03:53:40;;;;;;;;;;;;;;;27.53;47.96;98899.72;2049951;28;19926;-67
2022/06/15 03:54:42;;;;;;;;;;;;;;;27.54;48.08;98897.81;2049914;28;20656;-66
2022/06/15 03:55:43;;;;;;;;;;;;;;;27.54;47.69;98903.28;2048688;28;19926;-66
2022/06/15 03:56:45;;;;;;;;;;;;;;;27.55;47.79;98904.91;2046879;28;19941;-67
2022/06/15 03:57:46;;;;;;;;;;;;;;;27.54;47.91;98897.81;2047654;28;19970;-67
2022/06/15 03:58:48;;;;;;;;;;;;;;;27.54;47.70;98903.28;2042394;28;20292;-66
2022/06/15 03:59:48;;;;;;;;;;;;;;;27.53;47.97;98904.38;2045658;28;20417;-67
2022/06/15 04:00:50;;;;;;;;;;;;;;;27.54;47.88;98906.00;2048599;28;19926;-66
2022/06/15 04:01:51;;;;;;;;;;;;;;;27.52;48.01;98902.69;2046938;28;19934;-66
2022/06/15 04:02:53;;;;;;;;;;;;;;;27.53;47.93;98901.63;2049402;28;19934;-66
2022/06/15 04:03:54;;;;;;;;;;;;;;;27.52;47.94;98899.97;2046432;28;20021;-67
2022/06/15 04:04:55;;;;;;;;;;;;;;;27.52;47.95;98899.97;2047130;28;19933;-66
2022/06/15 04:05:58;;;;;;;;;;;;;;;27.52;47.91;98900.78;2046221;28;19925;-66
2022/06/15 04:07:00;;;;;;;;;;;;;;;27.53;47.97;98901.63;2048137;28;19972;-68
2022/06/15 04:09:21;;;;;;;;;;;;;;;27.51;48.29;98896.44;2048123;28;20457;-68
2022/06/15 04:10:21;;;;;;;;;;;;;;;27.51;48.15;98895.63;2045835;28;19926;-66
2022/06/15 04:12:44;;;;;;;;;;;;;;;27.51;47.95;98901.88;2046382;28;20065;-66
2022/06/15 04:13:44;;;;;;;;;;;;;;;27.51;48.27;98901.06;2044779;28;19971;-67
2022/06/15 04:14:46;;;;;;;;;;;;;;;27.51;48.22;98899.16;2047777;28;19949;-67
2022/06/15 04:15:47;;;;;;;;;;;;;;;27.52;47.95;98897.25;2050716;28;19937;-67
2022/06/15 04:16:53;;;;;;;;;;;;;;;27.51;47.87;98903.78;2052895;28;20409;-67
2022/06/15 04:17:53;;;;;;;;;;;;;;;27.52;48.23;98905.44;2045364;28;19938;-67
2022/06/15 04:18:55;;;;;;;;;;;;;;;27.50;48.22;98899.44;2048258;28;19930;-67
2022/06/15 04:21:17;;;;;;;;;;;;;;;27.50;48.20;98893.97;2049728;28;19940;-67
2022/06/15 04:22:18;;;;;;;;;;;;;;;27.51;47.95;98898.34;2047911;28;20086;-67
2022/06/15 04:23:21;;;;;;;;;;;;;;;27.50;48.39;98902.16;2046961;28;20095;-67
2022/06/15 04:24:22;;;;;;;;;;;;;;;27.50;48.40;98899.44;2050400;28;19930;-67
2022/06/15 04:25:24;;;;;;;;;;;;;;;27.49;48.02;98901.31;2038138;28;20013;-67
2022/06/15 04:26:26;;;;;;;;;;;;;;;27.52;47.98;98899.97;2037595;28;20036;-68
2022/06/15 04:27:26;;;;;;;;;;;;;;;27.52;48.05;98905.44;2046730;28;19934;-67
2022/06/15 04:28:30;;;;;;;;;;;;;;;27.52;48.13;98899.97;2046435;28;20047;-66
2022/06/15 04:29:30;;;;;;;;;;;;;;;27.51;47.99;98903.78;2049144;28;19930;-67
2022/06/15 04:30:32;;;;;;;;;;;;;;;27.50;48.21;98902.97;2053668;28;19930;-68
2022/06/15 04:31:32;;;;;;;;;;;;;;;27.47;48.04;98900.75;2045417;28;19926;-67
2022/06/15 04:32:34;;;;;;;;;;;;;;;27.49;48.10;98905.94;2048392;28;19932;-67
2022/06/15 04:33:36;;;;;;;;;;;;;;;27.48;48.12;98901.56;2051292;28;19926;-68
2022/06/15 04:34:37;;;;;;;;;;;;;;;27.48;48.21;98904.31;2043173;28;20189;-68
2022/06/15 04:35:39;;;;;;;;;;;;;;;27.47;48.11;98898.03;2047653;28;19973;-68
2022/06/15 04:36:42;;;;;;;;;;;;;;;27.49;48.11;98895.84;2046262;28;19957;-68
2022/06/15 04:37:44;;;;;;;;;;;;;;;27.50;48.21;98896.72;2048498;28;20426;-67
2022/06/15 04:38:44;;;;;;;;;;;;;;;27.50;48.00;98897.53;2048466;28;19926;-67
2022/06/15 04:39:46;;;;;;;;;;;;;;;27.50;48.07;98891.25;2048207;28;19932;-68
2022/06/15 04:40:47;;;;;;;;;;;;;;;27.48;47.96;98894.22;2046508;28;19956;-67
2022/06/15 04:41:48;;;;;;;;;;;;;;;27.48;48.14;98898.84;2046598;28;19934;-68
2022/06/15 04:42:50;;;;;;;;;;;;;;;27.47;48.03;98903.47;2040117;28;20085;-68
2022/06/15 04:43:51;;;;;;;;;;;;;;;27.50;48.25;98896.72;2046676;28;20067;-67
2022/06/15 04:44:52;;;;;;;;;;;;;;;27.48;48.26;98901.56;2043876;28;20533;-66
2022/06/15 04:45:54;;;;;;;;;;;;;;;27.49;47.87;98904.03;2045255;28;19983;-67
2022/06/15 04:46:54;;;;;;;;;;;;;;;27.50;48.23;98896.72;2047112;28;19926;-67
2022/06/15 04:47:56;;;;;;;;;;;;;;;27.50;48.29;98902.16;2049337;28;20016;-67
2022/06/15 04:48:57;;;;;;;;;;;;;;;27.48;48.36;98901.56;2045616;28;19926;-66
2022/06/15 04:49:58;;;;;;;;;;;;;;;27.48;48.03;98899.66;2047579;28;20008;-67
2022/06/15 04:51:08;;;;;;;;;;;;;;;27.48;48.17;98901.56;2048313;28;20600;-67
2022/06/15 04:52:11;;;;;;;;;;;;;;;27.46;48.15;98901.81;2050123;28;19930;-67
2022/06/15 04:53:12;;;;;;;;;;;;;;;27.48;48.04;98902.41;2048778;28;19937;-67
2022/06/15 04:54:14;;;;;;;;;;;;;;;27.46;47.94;98901.81;2049376;28;20457;-67
2022/06/15 04:55:16;;;;;;;;;;;;;;;27.47;48.18;98902.63;2035575;28;20758;-68
2022/06/15 04:56:18;;;;;;;;;;;;;;;27.48;48.10;98910.56;2047173;28;19987;-67
2022/06/15 04:57:18;;;;;;;;;;;;;;;27.47;48.20;98903.47;2048578;28;19947;-67
2022/06/15 04:58:20;;;;;;;;;;;;;;;27.46;48.08;98907.28;2046287;28;19930;-67
2022/06/15 04:59:20;;;;;;;;;;;;;;;27.46;48.15;98912.72;2046597;28;19930;-68
2022/06/15 05:00:24;;;;;;;;;;;;;;;27.46;48.02;98901.81;2046385;28;20028;-67
2022/06/15 05:01:24;;;;;;;;;;;;;;;27.46;48.25;98906.44;2043614;28;20243;-66
2022/06/15 05:02:26;;;;;;;;;;;;;;;27.48;48.17;98907.84;2048351;28;19943;-66
2022/06/15 05:03:27;;;;;;;;;;;;;;;27.46;47.97;98906.44;2047222;28;19934;-68
2022/06/15 05:04:28;;;;;;;;;;;;;;;27.46;48.10;98907.28;2051499;28;19926;-66
2022/06/15 05:05:29;;;;;;;;;;;;;;;27.47;48.13;98910.81;2050244;28;20521;-68
2022/06/15 05:06:32;;;;;;;;;;;;;;;27.46;47.89;98906.44;2046216;28;19960;-66
2022/06/15 05:07:35;;;;;;;;;;;;;;;27.46;48.00;98911.91;2048478;28;20343;-67
2022/06/15 05:08:35;;;;;;;;;;;;;;;27.44;48.14;98909.41;2044449;28;20433;-67
2022/06/15 05:09:37;;;;;;;;;;;;;;;27.45;48.24;98913.00;2045574;28;19936;-68
2022/06/15 05:10:39;;;;;;;;;;;;;;;27.45;47.87;98915.72;2050027;28;20421;-67
2022/06/15 05:11:39;;;;;;;;;;;;;;;27.46;48.16;98912.72;2048460;28;19934;-66
2022/06/15 05:12:41;;;;;;;;;;;;;;;27.47;47.90;98914.38;2050082;28;19933;-67
2022/06/15 05:13:41;;;;;;;;;;;;;;;27.46;48.17;98910.00;2046830;28;19929;-68
2022/06/15 05:14:47;;;;;;;;;;;;;;;27.46;47.98;98918.16;2047214;28;20087;-67
2022/06/15 05:15:47;;;;;;;;;;;;;;;27.48;47.86;98910.56;2048994;28;20245;-67
2022/06/15 05:16:49;;;;;;;;;;;;;;;27.48;47.77;98912.47;2049834;28;20562;-68
2022/06/15 05:17:50;;;;;;;;;;;;;;;27.47;47.88;98910.81;2046115;28;19934;-67
2022/06/15 05:18:52;;;;;;;;;;;;;;;27.46;47.89;98914.63;2048812;28;20433;-67
2022/06/15 05:19:53;;;;;;;;;;;;;;;27.46;47.96;98911.91;2039941;28;19961;-67
2022/06/15 05:20:55;;;;;;;;;;;;;;;27.45;47.91;98905.63;2038576;28;20227;-69
2022/06/15 05:21:55;;;;;;;;;;;;;;;27.44;48.10;98909.41;2035352;28;22038;-67
2022/06/15 05:22:58;;;;;;;;;;;;;;;27.45;47.94;98913.00;2046480;28;21186;-67
2022/06/15 05:23:59;;;;;;;;;;;;;;;27.47;48.39;98908.94;2046880;28;19930;-66
2022/06/15 05:25:00;;;;;;;;;;;;;;;27.45;48.34;98918.44;2047979;28;20386;-68
2022/06/15 05:26:01;;;;;;;;;;;;;;;27.45;48.41;98910.25;2035389;28;21232;-67
2022/06/15 05:27:03;;;;;;;;;;;;;;;27.46;48.11;98911.91;2037477;28;19930;-67
2022/06/15 05:28:05;;;;;;;;;;;;;;;27.46;48.35;98906.44;2037446;28;19934;-68
2022/06/15 05:29:07;;;;;;;;;;;;;;;27.47;48.12;98913.53;2046055;28;20052;-68
2022/06/15 05:30:08;;;;;;;;;;;;;;;27.44;48.48;98908.59;2044650;28;20492;-68
2022/06/15 05:31:12;;;;;;;;;;;;;;;27.44;48.37;98914.03;2046757;28;20386;-68
2022/06/15 05:32:13;;;;;;;;;;;;;;;27.45;48.26;98910.25;2046911;28;20028;-69